Time;durP1;ratioP1;P1;durP2;ratioP2;P2;SDS_P1;SDS_P2;PMS_P1;PMS_P2;Temp;Humidity;BMP_temperature;BMP_pressure;BME280_temperature;BME280_humidity;BME280_pressure;Samples;Min_cycle;Max_cycle;Signal;HPM_P1;HPM_P2
2022/09/10 00:00:46;;;;;;;6.90;2.87;;;;;;;;;;5061553;28;20203;-82
2022/09/10 00:03:13;;;;;;;6.07;2.80;;;;;;;;;;5054643;28;20218;-81
2022/09/10 00:05:43;;;;;;;7.60;3.07;;;;;;;;;;5068146;28;20355;-81
2022/09/10 00:08:11;;;;;;;10.30;3.07;;;;;;;;;;5052044;28;20235;-81
2022/09/10 00:10:39;;;;;;;6.30;2.80;;;;;;;;;;5051520;28;20238;-81
2022/09/10 00:13:08;;;;;;;8.10;3.00;;;;;;;;;;5055535;28;20215;-80
2022/09/10 00:15:38;;;;;;;7.90;3.33;;;;;;;;;;5068748;28;20286;-81
2022/09/10 00:18:05;;;;;;;8.63;2.90;;;;;;;;;;5067452;28;20226;-81
2022/09/10 00:20:33;;;;;;;5.93;2.73;;;;;;;;;;5061078;28;20259;-81
2022/09/10 00:23:01;;;;;;;6.27;3.10;;;;;;;;;;5052022;28;20660;-81
2022/09/10 00:25:30;;;;;;;5.53;2.93;;;;;;;;;;5062965;28;20248;-81
2022/09/10 00:27:58;;;;;;;7.27;3.13;;;;;;;;;;5068491;28;20287;-81
2022/09/10 00:30:26;;;;;;;8.67;2.90;;;;;;;;;;5071171;28;20201;-81
2022/09/10 00:32:53;;;;;;;5.73;2.77;;;;;;;;;;5055927;28;20230;-81
2022/09/10 00:35:20;;;;;;;6.97;2.90;;;;;;;;;;5068802;28;20230;-81
2022/09/10 00:37:47;;;;;;;8.10;3.00;;;;;;;;;;5071097;28;20759;-81
2022/09/10 00:40:16;;;;;;;9.67;3.10;;;;;;;;;;5075004;28;20263;-81
2022/09/10 00:42:44;;;;;;;5.70;2.73;;;;;;;;;;5068356;28;20302;-81
2022/09/10 00:45:17;;;;;;;6.83;3.00;;;;;;;;;;5062765;28;20223;-81
2022/09/10 00:47:46;;;;;;;6.97;2.67;;;;;;;;;;5066164;28;20200;-80
2022/09/10 00:50:17;;;;;;;7.30;2.63;;;;;;;;;;5070095;28;20637;-80
2022/09/10 00:52:45;;;;;;;11.63;2.93;;;;;;;;;;5075621;28;20229;-80
2022/09/10 00:55:13;;;;;;;9.70;3.33;;;;;;;;;;5073679;28;20211;-81
2022/09/10 00:57:42;;;;;;;8.93;3.10;;;;;;;;;;5063511;28;20242;-81
2022/09/10 01:00:10;;;;;;;6.63;2.63;;;;;;;;;;5068771;28;20306;-81
2022/09/10 01:02:38;;;;;;;10.43;2.97;;;;;;;;;;5076055;28;20203;-81
2022/09/10 01:05:07;;;;;;;7.03;2.97;;;;;;;;;;5068158;28;20202;-81
2022/09/10 01:07:35;;;;;;;7.10;3.07;;;;;;;;;;5063729;28;20206;-81
2022/09/10 01:10:04;;;;;;;10.20;3.00;;;;;;;;;;5063678;28;20229;-82
2022/09/10 01:12:39;;;;;;;12.23;2.90;;;;;;;;;;5065026;28;20237;-81
2022/09/10 01:15:14;;;;;;;7.30;3.20;;;;;;;;;;5065320;28;20278;-81
2022/09/10 01:17:45;;;;;;;8.23;2.97;;;;;;;;;;5071790;28;20206;-81
2022/09/10 01:20:29;;;;;;;7.90;3.23;;;;;;;;;;5064578;28;20243;-81
2022/09/10 01:23:07;;;;;;;8.13;3.00;;;;;;;;;;5065324;28;20576;-81
2022/09/10 01:25:40;;;;;;;10.70;2.83;;;;;;;;;;5074457;28;20229;-81
2022/09/10 01:28:11;;;;;;;8.93;3.13;;;;;;;;;;5059655;28;20570;-81
2022/09/10 01:30:41;;;;;;;8.83;2.60;;;;;;;;;;5066386;28;20620;-81
2022/09/10 01:33:11;;;;;;;9.07;2.90;;;;;;;;;;5058561;28;20728;-81
2022/09/10 01:35:41;;;;;;;6.93;2.87;;;;;;;;;;5068363;28;20286;-82
2022/09/10 01:38:11;;;;;;;8.63;3.20;;;;;;;;;;5061871;28;20253;-81
2022/09/10 01:40:39;;;;;;;13.53;3.30;;;;;;;;;;5054750;28;20413;-81
2022/09/10 01:43:07;;;;;;;8.33;3.27;;;;;;;;;;5071005;28;20235;-81
2022/09/10 01:45:38;;;;;;;10.33;4.20;;;;;;;;;;5069653;28;20282;-81
2022/09/10 01:48:23;;;;;;;11.20;4.70;;;;;;;;;;5060256;28;20648;-81
2022/09/10 01:50:56;;;;;;;9.73;5.70;;;;;;;;;;5065404;28;20279;-81
2022/09/10 01:53:39;;;;;;;11.07;5.67;;;;;;;;;;5062218;28;20195;-82
2022/09/10 01:56:12;;;;;;;15.97;6.90;;;;;;;;;;5061186;28;20720;-82
2022/09/10 01:58:40;;;;;;;8.37;6.10;;;;;;;;;;5066323;28;20242;-81
2022/09/10 02:01:15;;;;;;;10.80;6.17;;;;;;;;;;5074100;28;20304;-81
2022/09/10 02:03:43;;;;;;;9.07;6.27;;;;;;;;;;5054561;28;20294;-81
2022/09/10 02:06:13;;;;;;;15.37;6.10;;;;;;;;;;5054174;28;20647;-81
2022/09/10 02:08:41;;;;;;;11.70;6.33;;;;;;;;;;5066752;28;20203;-81
2022/09/10 02:11:11;;;;;;;13.60;6.40;;;;;;;;;;5074416;28;20230;-81
2022/09/10 02:13:39;;;;;;;9.73;5.70;;;;;;;;;;5073672;28;20581;-81
2022/09/10 02:16:08;;;;;;;9.30;5.73;;;;;;;;;;5073907;28;20302;-81
2022/09/10 02:18:38;;;;;;;9.93;5.73;;;;;;;;;;5064627;28;20282;-80
2022/09/10 02:21:05;;;;;;;11.57;5.50;;;;;;;;;;5067297;28;20219;-81
2022/09/10 02:23:35;;;;;;;12.87;5.50;;;;;;;;;;5069537;28;20229;-81
2022/09/10 02:26:03;;;;;;;13.17;5.50;;;;;;;;;;5058987;28;20235;-81
2022/09/10 02:28:30;;;;;;;11.00;4.80;;;;;;;;;;5063660;28;20237;-81
2022/09/10 02:30:57;;;;;;;10.73;5.10;;;;;;;;;;5072426;28;20227;-80
2022/09/10 02:33:24;;;;;;;13.60;5.07;;;;;;;;;;5069557;28;20223;-81
2022/09/10 02:35:54;;;;;;;10.90;4.60;;;;;;;;;;5063560;28;20238;-81
2022/09/10 02:38:21;;;;;;;9.27;4.27;;;;;;;;;;5067028;28;20227;-81
2022/09/10 02:40:49;;;;;;;8.10;4.23;;;;;;;;;;5066742;28;20258;-81
2022/09/10 02:43:16;;;;;;;9.07;4.30;;;;;;;;;;5070430;28;20238;-81
2022/09/10 02:45:43;;;;;;;11.10;4.17;;;;;;;;;;5061274;28;20698;-81
2022/09/10 02:48:11;;;;;;;10.93;3.77;;;;;;;;;;5060830;28;20280;-81
2022/09/10 02:50:38;;;;;;;11.70;4.10;;;;;;;;;;5062072;28;20242;-81
2022/09/10 02:53:06;;;;;;;8.33;3.63;;;;;;;;;;5061842;28;20235;-81
2022/09/10 02:55:34;;;;;;;12.87;3.97;;;;;;;;;;5064558;28;20227;-80
2022/09/10 02:58:01;;;;;;;7.03;3.73;;;;;;;;;;5064921;28;20301;-80
2022/09/10 03:00:30;;;;;;;12.07;3.83;;;;;;;;;;5059886;28;20749;-81
2022/09/10 03:02:58;;;;;;;8.73;4.17;;;;;;;;;;5062107;28;20201;-81
2022/09/10 03:05:25;;;;;;;8.23;3.63;;;;;;;;;;5053018;28;20228;-81
2022/09/10 03:07:54;;;;;;;8.17;3.63;;;;;;;;;;5057809;28;20281;-81
2022/09/10 03:10:23;;;;;;;7.07;3.20;;;;;;;;;;5067968;28;20279;-81
2022/09/10 03:12:52;;;;;;;8.33;3.07;;;;;;;;;;5072472;28;20195;-81
2022/09/10 03:15:19;;;;;;;11.77;3.13;;;;;;;;;;5063606;28;20211;-81
2022/09/10 03:17:46;;;;;;;10.77;3.37;;;;;;;;;;5064909;28;20264;-81
2022/09/10 03:20:14;;;;;;;14.77;3.93;;;;;;;;;;5062211;28;20327;-81
2022/09/10 03:22:41;;;;;;;14.07;3.70;;;;;;;;;;5069766;28;21027;-81
2022/09/10 03:25:08;;;;;;;6.97;3.17;;;;;;;;;;5058998;28;20239;-81
2022/09/10 03:27:37;;;;;;;13.37;4.00;;;;;;;;;;5068679;28;20649;-81
2022/09/10 03:30:04;;;;;;;10.27;3.70;;;;;;;;;;5060984;28;20248;-81
2022/09/10 03:32:32;;;;;;;10.63;3.67;;;;;;;;;;5071794;28;20191;-81
2022/09/10 03:34:59;;;;;;;9.07;3.63;;;;;;;;;;5067982;28;20215;-81
2022/09/10 03:37:27;;;;;;;11.37;3.43;;;;;;;;;;5064122;28;20285;-81
2022/09/10 03:39:54;;;;;;;9.03;3.20;;;;;;;;;;5055149;28;20252;-81
2022/09/10 03:42:21;;;;;;;11.57;3.80;;;;;;;;;;5067339;28;20283;-81
2022/09/10 03:44:51;;;;;;;8.60;3.40;;;;;;;;;;5062955;28;20672;-80
2022/09/10 03:47:18;;;;;;;8.27;3.17;;;;;;;;;;5064183;28;20195;-81
2022/09/10 03:49:45;;;;;;;9.47;3.70;;;;;;;;;;5072033;28;20222;-81
2022/09/10 03:52:13;;;;;;;5.83;3.37;;;;;;;;;;5069541;28;20199;-81
2022/09/10 03:54:41;;;;;;;7.43;3.50;;;;;;;;;;5058255;28;20667;-82
2022/09/10 03:57:08;;;;;;;9.23;3.63;;;;;;;;;;5071236;28;20207;-81
2022/09/10 03:59:35;;;;;;;9.40;3.50;;;;;;;;;;5060154;28;20247;-81
2022/09/10 04:02:04;;;;;;;9.30;3.93;;;;;;;;;;5056537;28;20200;-81
2022/09/10 04:04:32;;;;;;;9.37;3.77;;;;;;;;;;5060727;28;20230;-80
2022/09/10 04:07:00;;;;;;;9.63;3.90;;;;;;;;;;5060537;28;20204;-80
2022/09/10 04:09:27;;;;;;;9.63;3.70;;;;;;;;;;5061493;28;20196;-81
2022/09/10 04:11:55;;;;;;;10.73;3.90;;;;;;;;;;5068451;28;20187;-81
2022/09/10 04:14:22;;;;;;;8.13;3.53;;;;;;;;;;5063012;28;20203;-80
2022/09/10 04:16:49;;;;;;;8.00;4.07;;;;;;;;;;5067358;28;20223;-81
2022/09/10 04:19:18;;;;;;;8.67;3.60;;;;;;;;;;5060341;28;20230;-81
2022/09/10 04:21:45;;;;;;;10.67;4.03;;;;;;;;;;5070449;28;20257;-80
2022/09/10 04:24:13;;;;;;;9.83;3.50;;;;;;;;;;5070876;28;20246;-81
2022/09/10 04:26:40;;;;;;;9.03;3.63;;;;;;;;;;5061871;28;20199;-80
2022/09/10 04:29:07;;;;;;;7.53;3.57;;;;;;;;;;5069801;28;20282;-81
2022/09/10 04:31:34;;;;;;;10.13;4.17;;;;;;;;;;5060874;28;20637;-80
2022/09/10 04:34:02;;;;;;;8.23;4.13;;;;;;;;;;5068298;28;20282;-81
2022/09/10 04:36:30;;;;;;;11.33;3.73;;;;;;;;;;5067124;28;20230;-81
2022/09/10 04:38:58;;;;;;;11.73;3.90;;;;;;;;;;5062197;28;20682;-81
2022/09/10 04:41:25;;;;;;;10.17;4.07;;;;;;;;;;5068512;28;20219;-81
2022/09/10 04:43:53;;;;;;;10.67;3.67;;;;;;;;;;5071705;28;20672;-81
2022/09/10 04:46:20;;;;;;;8.70;4.20;;;;;;;;;;5060810;28;20199;-81
2022/09/10 04:48:47;;;;;;;11.50;4.37;;;;;;;;;;5059582;28;20705;-81
2022/09/10 04:51:16;;;;;;;10.33;4.00;;;;;;;;;;5069305;28;20195;-81
2022/09/10 04:53:44;;;;;;;9.67;4.27;;;;;;;;;;5068825;28;20199;-81
2022/09/10 04:56:12;;;;;;;8.47;3.70;;;;;;;;;;5061703;28;20210;-81
2022/09/10 04:58:39;;;;;;;8.23;3.90;;;;;;;;;;5062778;28;20215;-81
2022/09/10 05:01:07;;;;;;;12.33;4.03;;;;;;;;;;5056674;28;20215;-81
2022/09/10 05:03:34;;;;;;;12.03;3.97;;;;;;;;;;5058861;28;20242;-81
2022/09/10 05:06:03;;;;;;;10.80;4.00;;;;;;;;;;5053294;28;20235;-80
2022/09/10 05:08:31;;;;;;;12.50;4.10;;;;;;;;;;5066960;28;20203;-80
2022/09/10 05:11:01;;;;;;;11.23;4.13;;;;;;;;;;5056626;28;20219;-80
2022/09/10 05:13:30;;;;;;;8.10;4.23;;;;;;;;;;5070711;28;20253;-80
2022/09/10 05:15:57;;;;;;;7.60;4.00;;;;;;;;;;5062720;28;20195;-81
2022/09/10 05:18:25;;;;;;;9.03;3.93;;;;;;;;;;5072124;28;20221;-80
2022/09/10 05:20:52;;;;;;;10.40;4.00;;;;;;;;;;5068077;28;20255;-80
2022/09/10 05:23:20;;;;;;;10.43;4.50;;;;;;;;;;5061935;28;20195;-81
2022/09/10 05:25:47;;;;;;;11.77;4.60;;;;;;;;;;5056626;28;20238;-80
2022/09/10 05:28:16;;;;;;;14.83;5.20;;;;;;;;;;5062294;28;20580;-80
2022/09/10 05:30:45;;;;;;;10.33;5.20;;;;;;;;;;5064592;28;20196;-81
2022/09/10 05:33:12;;;;;;;13.63;5.33;;;;;;;;;;5067629;28;20207;-81
2022/09/10 05:35:39;;;;;;;13.40;5.60;;;;;;;;;;5063140;28;20200;-81
2022/09/10 05:38:08;;;;;;;11.10;5.97;;;;;;;;;;5064571;28;20227;-81
2022/09/10 05:40:35;;;;;;;15.00;6.07;;;;;;;;;;5068951;28;20303;-80
2022/09/10 05:43:02;;;;;;;10.80;6.03;;;;;;;;;;5071595;28;20227;-80
2022/09/10 05:45:31;;;;;;;11.13;6.20;;;;;;;;;;5075106;28;20301;-80
2022/09/10 05:47:58;;;;;;;15.57;6.50;;;;;;;;;;5067302;28;20214;-81
2022/09/10 05:50:25;;;;;;;12.87;6.30;;;;;;;;;;5063883;28;20201;-80
2022/09/10 05:52:53;;;;;;;11.67;5.93;;;;;;;;;;5068642;28;20222;-81
2022/09/10 05:55:20;;;;;;;12.80;6.60;;;;;;;;;;5064784;28;20347;-81
2022/09/10 05:57:47;;;;;;;12.93;6.53;;;;;;;;;;5058677;28;20726;-81
2022/09/10 06:00:15;;;;;;;10.27;6.07;;;;;;;;;;5073210;28;20763;-81
2022/09/10 06:02:44;;;;;;;13.10;6.43;;;;;;;;;;5062717;28;20687;-81
2022/09/10 06:05:12;;;;;;;17.37;7.50;;;;;;;;;;5068438;28;21045;-81
2022/09/10 06:07:39;;;;;;;14.93;6.73;;;;;;;;;;5057854;28;20206;-81
2022/09/10 06:10:06;;;;;;;10.70;6.80;;;;;;;;;;5065678;28;20682;-80
2022/09/10 06:12:34;;;;;;;17.37;6.63;;;;;;;;;;5070661;28;20274;-80
2022/09/10 06:15:03;;;;;;;13.83;6.63;;;;;;;;;;5061467;28;20207;-80
2022/09/10 06:17:30;;;;;;;12.03;6.63;;;;;;;;;;5054918;28;20671;-80
2022/09/10 06:20:00;;;;;;;13.87;6.70;;;;;;;;;;5060032;28;20221;-81
2022/09/10 06:22:27;;;;;;;11.67;6.60;;;;;;;;;;5054147;28;20235;-81
2022/09/10 06:24:54;;;;;;;15.97;6.27;;;;;;;;;;5054184;28;20609;-82
2022/09/10 06:27:22;;;;;;;11.67;6.53;;;;;;;;;;5054685;28;20207;-81
2022/09/10 06:29:50;;;;;;;9.57;6.00;;;;;;;;;;5053773;28;20226;-81
2022/09/10 06:32:17;;;;;;;12.83;6.30;;;;;;;;;;5056514;28;20275;-81
2022/09/10 06:34:44;;;;;;;12.60;5.97;;;;;;;;;;5071856;28;20747;-81
2022/09/10 06:37:13;;;;;;;10.17;5.37;;;;;;;;;;5069560;28;20191;-81
2022/09/10 06:39:40;;;;;;;12.97;5.50;;;;;;;;;;5069922;28;20199;-81
2022/09/10 06:42:08;;;;;;;8.97;5.20;;;;;;;;;;5073433;28;20310;-80
2022/09/10 06:44:35;;;;;;;11.80;5.50;;;;;;;;;;5067715;28;20292;-81
2022/09/10 06:47:03;;;;;;;10.67;5.10;;;;;;;;;;5062944;28;20237;-81
2022/09/10 06:49:30;;;;;;;10.13;4.97;;;;;;;;;;5073594;28;20381;-81
2022/09/10 06:51:57;;;;;;;8.53;4.30;;;;;;;;;;5070473;28;20237;-81
2022/09/10 06:54:26;;;;;;;7.22;3.72;;;;;;;;;;5071620;28;20274;-81
2022/09/10 06:56:53;;;;;;;5.60;3.33;;;;;;;;;;5069329;28;20230;-81
2022/09/10 06:59:20;;;;;;;7.75;2.92;;;;;;;;;;5068823;28;20243;-82
2022/09/10 07:01:48;;;;;;;8.35;2.80;;;;;;;;;;5059738;28;20234;-82
2022/09/10 07:04:15;;;;;;;5.95;2.72;;;;;;;;;;5064886;28;20195;-82
2022/09/10 07:06:44;;;;;;;3.60;2.03;;;;;;;;;;5055161;28;20751;-82
2022/09/10 07:09:11;;;;;;;8.57;2.17;;;;;;;;;;5059050;28;20748;-81
2022/09/10 07:11:40;;;;;;;6.65;2.08;;;;;;;;;;5060777;28;20226;-81
2022/09/10 07:14:08;;;;;;;5.30;1.98;;;;;;;;;;5068025;28;20242;-81
2022/09/10 07:16:35;;;;;;;6.18;2.25;;;;;;;;;;5067525;28;20227;-80
2022/09/10 07:19:02;;;;;;;4.18;1.92;;;;;;;;;;5063981;28;20192;-81
2022/09/10 07:21:29;;;;;;;5.70;2.30;;;;;;;;;;5070398;28;20934;-80
2022/09/10 07:23:57;;;;;;;5.82;1.85;;;;;;;;;;5061238;28;20241;-81
2022/09/10 07:26:25;;;;;;;5.53;1.90;;;;;;;;;;5060740;28;20291;-81
2022/09/10 07:28:54;;;;;;;4.35;2.10;;;;;;;;;;5058422;28;20697;-84
2022/09/10 07:31:22;;;;;;;6.22;2.22;;;;;;;;;;5071183;28;20277;-81
2022/09/10 07:33:50;;;;;;;6.72;2.15;;;;;;;;;;5062305;28;20203;-81
2022/09/10 07:36:17;;;;;;;7.07;2.00;;;;;;;;;;5059921;28;20274;-81
2022/09/10 07:38:45;;;;;;;9.68;2.47;;;;;;;;;;5062353;28;20195;-81
2022/09/10 07:41:13;;;;;;;6.40;1.92;;;;;;;;;;5058165;28;20282;-82
2022/09/10 07:43:40;;;;;;;4.20;1.70;;;;;;;;;;5056908;28;20258;-82
2022/09/10 07:46:11;;;;;;;5.72;1.80;;;;;;;;;;5053316;28;20210;-81
2022/09/10 07:48:39;;;;;;;5.28;1.55;;;;;;;;;;5065620;28;20199;-82
2022/09/10 07:51:07;;;;;;;3.42;1.77;;;;;;;;;;5065364;28;20333;-81
2022/09/10 07:53:34;;;;;;;3.38;1.88;;;;;;;;;;5060756;28;20227;-81
2022/09/10 07:56:02;;;;;;;5.22;1.90;;;;;;;;;;5069251;28;20210;-81
2022/09/10 07:58:30;;;;;;;4.18;1.67;;;;;;;;;;5060886;28;20742;-81
2022/09/10 08:00:58;;;;;;;7.07;1.98;;;;;;;;;;5060414;28;20698;-81
2022/09/10 08:03:27;;;;;;;4.13;1.60;;;;;;;;;;5070563;28;20245;-81
2022/09/10 08:05:54;;;;;;;5.82;1.77;;;;;;;;;;5061757;28;20286;-81
2022/09/10 08:08:21;;;;;;;3.67;1.80;;;;;;;;;;5059595;28;20298;-81
2022/09/10 08:10:49;;;;;;;5.95;1.88;;;;;;;;;;5060708;28;20282;-81
2022/09/10 08:13:17;;;;;;;4.88;2.17;;;;;;;;;;5072722;28;20289;-81
2022/09/10 08:15:44;;;;;;;4.80;1.80;;;;;;;;;;5071858;28;20201;-83
2022/09/10 08:18:12;;;;;;;6.40;1.95;;;;;;;;;;5072195;28;20245;-84
2022/09/10 08:20:41;;;;;;;2.65;1.52;;;;;;;;;;5069402;28;20195;-83
2022/09/10 08:23:09;;;;;;;3.28;1.52;;;;;;;;;;5064750;28;20305;-83
2022/09/10 08:25:36;;;;;;;3.55;1.80;;;;;;;;;;5061741;28;20202;-83
2022/09/10 08:28:04;;;;;;;4.85;1.73;;;;;;;;;;5066614;28;20694;-83
2022/09/10 08:30:31;;;;;;;7.28;2.03;;;;;;;;;;5063768;28;20207;-82
2022/09/10 08:32:58;;;;;;;3.85;1.40;;;;;;;;;;5072711;28;20283;-82
2022/09/10 08:35:26;;;;;;;5.20;2.10;;;;;;;;;;5066604;28;20238;-82
2022/09/10 08:37:55;;;;;;;3.80;1.75;;;;;;;;;;5063363;28;20304;-82
2022/09/10 08:40:22;;;;;;;4.28;1.40;;;;;;;;;;5062816;28;20230;-83
2022/09/10 08:42:51;;;;;;;4.30;2.00;;;;;;;;;;5063713;28;20263;-83
2022/09/10 08:45:22;;;;;;;8.68;2.03;;;;;;;;;;5056828;28;20196;-83
2022/09/10 08:47:53;;;;;;;4.32;1.70;;;;;;;;;;5062565;28;20257;-83
2022/09/10 08:50:25;;;;;;;3.67;1.60;;;;;;;;;;5055084;28;20569;-83
2022/09/10 08:52:55;;;;;;;4.50;1.50;;;;;;;;;;5064167;28;20298;-83
2022/09/10 08:55:28;;;;;;;5.38;1.80;;;;;;;;;;5068580;28;20306;-83
2022/09/10 08:57:56;;;;;;;4.25;1.67;;;;;;;;;;5066686;28;20229;-83
2022/09/10 09:00:24;;;;;;;5.80;1.95;;;;;;;;;;5073267;28;20231;-83
2022/09/10 09:02:55;;;;;;;4.50;1.90;;;;;;;;;;5066520;28;20273;-84
2022/09/10 09:05:23;;;;;;;4.95;1.45;;;;;;;;;;5072335;28;20648;-82
2022/09/10 09:07:51;;;;;;;5.88;1.70;;;;;;;;;;5065748;28;20290;-82
2022/09/10 09:10:20;;;;;;;5.00;2.00;;;;;;;;;;5066410;28;20191;-82
2022/09/10 09:12:57;;;;;;;4.63;1.60;;;;;;;;;;5072805;28;20634;-83
2022/09/10 09:15:27;;;;;;;3.70;1.35;;;;;;;;;;5069124;28;20272;-83
2022/09/10 09:18:07;;;;;;;4.57;1.40;;;;;;;;;;5066330;28;20197;-82
2022/09/10 09:20:38;;;;;;;4.57;1.42;;;;;;;;;;5061180;28;20222;-82
2022/09/10 09:23:11;;;;;;;5.05;1.67;;;;;;;;;;5068859;28;20307;-83
2022/09/10 09:25:39;;;;;;;4.13;1.42;;;;;;;;;;5068953;28;20679;-82
2022/09/10 09:28:19;;;;;;;4.07;1.55;;;;;;;;;;5062097;28;20211;-81
2022/09/10 09:30:48;;;;;;;3.28;1.30;;;;;;;;;;5061954;28;20231;-80
2022/09/10 09:33:17;;;;;;;5.32;1.52;;;;;;;;;;5065413;28;20203;-80
2022/09/10 09:35:47;;;;;;;4.78;1.52;;;;;;;;;;5069602;28;20249;-80
2022/09/10 09:38:18;;;;;;;4.03;1.40;;;;;;;;;;5063382;28;20253;-80
2022/09/10 09:40:47;;;;;;;4.32;1.42;;;;;;;;;;5071087;28;20223;-81
2022/09/10 09:43:22;;;;;;;2.55;1.00;;;;;;;;;;5066476;28;20259;-82
2022/09/10 09:45:52;;;;;;;4.43;1.30;;;;;;;;;;5059847;28;20195;-80
2022/09/10 09:48:20;;;;;;;3.67;1.30;;;;;;;;;;5067607;28;20242;-80
2022/09/10 09:50:48;;;;;;;3.08;1.17;;;;;;;;;;5066207;28;20299;-80
2022/09/10 09:53:19;;;;;;;5.93;1.40;;;;;;;;;;5061479;28;20231;-81
2022/09/10 09:55:47;;;;;;;4.22;1.75;;;;;;;;;;5064677;28;20199;-80
2022/09/10 09:58:30;;;;;;;4.75;1.50;;;;;;;;;;5070064;28;20223;-80
2022/09/10 10:01:08;;;;;;;3.83;1.40;;;;;;;;;;5067017;28;20225;-80
2022/09/10 10:03:38;;;;;;;3.90;1.20;;;;;;;;;;5063524;28;21838;-79
2022/09/10 10:06:05;;;;;;;3.70;1.33;;;;;;;;;;5071639;28;20230;-80
2022/09/10 10:08:33;;;;;;;4.53;1.90;;;;;;;;;;5063552;28;20235;-80
2022/09/10 10:11:00;;;;;;;4.45;1.50;;;;;;;;;;5066788;28;20191;-81
2022/09/10 10:13:38;;;;;;;4.60;1.48;;;;;;;;;;5064806;28;20687;-80
2022/09/10 10:16:16;;;;;;;3.90;1.30;;;;;;;;;;5061599;28;20198;-80
2022/09/10 10:18:44;;;;;;;3.92;1.45;;;;;;;;;;5067827;28;20286;-81
2022/09/10 10:21:15;;;;;;;4.13;1.40;;;;;;;;;;5060401;28;20328;-81
2022/09/10 10:23:43;;;;;;;4.80;2.55;;;;;;;;;;5069529;28;20249;-81
2022/09/10 10:26:17;;;;;;;4.07;1.38;;;;;;;;;;5064687;28;20239;-81
2022/09/10 10:28:50;;;;;;;5.50;1.55;;;;;;;;;;5067352;28;20230;-81
2022/09/10 10:31:18;;;;;;;3.90;1.35;;;;;;;;;;5063214;28;20291;-81
2022/09/10 10:33:48;;;;;;;4.20;1.50;;;;;;;;;;5058094;28;20249;-81
2022/09/10 10:36:20;;;;;;;5.35;1.70;;;;;;;;;;5068314;28;20641;-80
2022/09/10 10:38:48;;;;;;;3.28;1.58;;;;;;;;;;5074325;28;20647;-79
2022/09/10 10:41:49;;;;;;;2.67;1.30;;;;;;;;;;5062383;28;20228;-78
2022/09/10 10:44:26;;;;;;;2.13;1.00;;;;;;;;;;5011388;28;20317;-78
2022/09/10 10:47:00;;;;;;;4.13;1.30;;;;;;;;;;5007559;28;20299;-78
2022/09/10 10:49:31;;;;;;;2.65;1.02;;;;;;;;;;4994735;28;20236;-78
2022/09/10 10:52:01;;;;;;;3.72;1.02;;;;;;;;;;5005675;28;20205;-78
2022/09/10 10:54:36;;;;;;;3.80;1.23;;;;;;;;;;5011730;28;20284;-80
2022/09/10 10:57:10;;;;;;;3.30;1.20;;;;;;;;;;5004427;28;20196;-80
2022/09/10 10:59:45;;;;;;;4.50;1.33;;;;;;;;;;4999605;28;20228;-79
2022/09/10 11:02:15;;;;;;;3.85;1.27;;;;;;;;;;5003306;28;20217;-80
2022/09/10 11:04:44;;;;;;;2.10;1.10;;;;;;;;;;5008886;28;20784;-79
2022/09/10 11:07:14;;;;;;;2.08;0.93;;;;;;;;;;5000620;28;20288;-80
2022/09/10 11:09:44;;;;;;;6.05;1.00;;;;;;;;;;5011772;28;20201;-79
2022/09/10 11:12:13;;;;;;;3.05;0.98;;;;;;;;;;5000972;28;20658;-80
2022/09/10 11:14:47;;;;;;;2.75;1.30;;;;;;;;;;5013363;28;20729;-79
2022/09/10 11:17:18;;;;;;;4.03;1.17;;;;;;;;;;5071668;28;20673;-79
2022/09/10 11:19:48;;;;;;;4.30;1.30;;;;;;;;;;5072262;28;20276;-79
2022/09/10 11:22:18;;;;;;;2.50;1.20;;;;;;;;;;5052814;28;20251;-79
2022/09/10 11:24:49;;;;;;;2.03;1.00;;;;;;;;;;5069845;28;20654;-79
2022/09/10 11:27:18;;;;;;;3.50;1.00;;;;;;;;;;5072898;28;20210;-79
2022/09/10 11:29:49;;;;;;;4.05;1.20;;;;;;;;;;5056162;28;20231;-79
2022/09/10 11:32:19;;;;;;;3.72;1.08;;;;;;;;;;5057389;28;20274;-79
2022/09/10 11:34:54;;;;;;;3.63;1.00;;;;;;;;;;5068726;28;20260;-79
2022/09/10 11:37:25;;;;;;;3.50;1.00;;;;;;;;;;5071935;28;20234;-80
2022/09/10 11:39:54;;;;;;;2.95;1.05;;;;;;;;;;5073314;28;20207;-80
2022/09/10 11:42:24;;;;;;;2.08;1.00;;;;;;;;;;5071627;28;20570;-79
2022/09/10 11:44:57;;;;;;;2.08;1.00;;;;;;;;;;5072987;28;20206;-79
2022/09/10 11:47:28;;;;;;;3.67;1.30;;;;;;;;;;5063252;28;20238;-80
2022/09/10 11:49:59;;;;;;;3.00;1.08;;;;;;;;;;5058418;28;20668;-79
2022/09/10 11:52:28;;;;;;;2.88;0.93;;;;;;;;;;5059913;28;20215;-79
2022/09/10 11:54:56;;;;;;;3.45;1.08;;;;;;;;;;5058415;28;20199;-81
2022/09/10 11:57:30;;;;;;;4.13;1.23;;;;;;;;;;5072887;28;20237;-80
2022/09/10 12:00:07;;;;;;;3.45;1.10;;;;;;;;;;5067250;28;20265;-82
2022/09/10 12:02:50;;;;;;;3.33;1.05;;;;;;;;;;5070086;28;20259;-78
2022/09/10 12:05:22;;;;;;;2.95;1.08;;;;;;;;;;5066917;28;20199;-79
2022/09/10 12:07:53;;;;;;;3.08;1.30;;;;;;;;;;5057862;28;20218;-79
2022/09/10 12:10:23;;;;;;;2.25;1.10;;;;;;;;;;5057791;28;20230;-80
2022/09/10 12:12:52;;;;;;;4.80;1.30;;;;;;;;;;5068888;28;20679;-78
2022/09/10 12:15:21;;;;;;;3.70;1.25;;;;;;;;;;5056150;28;20195;-79
2022/09/10 12:17:51;;;;;;;1.88;1.00;;;;;;;;;;5071788;28;20222;-79
2022/09/10 12:20:20;;;;;;;3.17;1.20;;;;;;;;;;5071895;28;20227;-79
2022/09/10 12:22:52;;;;;;;2.05;0.90;;;;;;;;;;5072145;28;20215;-79
2022/09/10 12:25:25;;;;;;;3.67;1.00;;;;;;;;;;5071858;28;20289;-79
2022/09/10 12:27:55;;;;;;;3.53;0.90;;;;;;;;;;5071967;28;20875;-79
2022/09/10 12:30:41;;;;;;;2.88;0.80;;;;;;;;;;5071823;28;20206;-79
2022/09/10 12:33:35;;;;;;;2.78;0.95;;;;;;;;;;5069831;28;20328;-79
2022/09/10 12:36:02;;;;;;;2.00;0.90;;;;;;;;;;5052098;28;20651;-79
2022/09/10 12:38:55;;;;;;;2.05;0.93;;;;;;;;;;5057803;28;20199;-79
2022/09/10 12:41:41;;;;;;;2.10;0.90;;;;;;;;;;5071927;28;20663;-79
2022/09/10 12:44:27;;;;;;;3.03;1.20;;;;;;;;;;5071097;28;20230;-79
2022/09/10 12:47:09;;;;;;;2.38;1.00;;;;;;;;;;5069692;28;20672;-79
2022/09/10 12:49:45;;;;;;;2.50;1.00;;;;;;;;;;5071206;28;20202;-77
2022/09/10 12:52:13;;;;;;;1.55;0.80;;;;;;;;;;5052517;28;20616;-78
2022/09/10 12:54:48;;;;;;;2.45;0.80;;;;;;;;;;5069405;28;20195;-78
2022/09/10 12:57:22;;;;;;;3.58;1.00;;;;;;;;;;5072073;28;20352;-78
2022/09/10 13:00:13;;;;;;;2.80;1.08;;;;;;;;;;5071605;28;20210;-78
2022/09/10 13:02:46;;;;;;;1.50;0.73;;;;;;;;;;5061878;28;20282;-78
2022/09/10 13:05:25;;;;;;;2.22;0.93;;;;;;;;;;5060363;28;20367;-78
2022/09/10 13:07:58;;;;;;;2.85;1.00;;;;;;;;;;5051303;28;20207;-78
2022/09/10 13:10:25;;;;;;;1.65;0.93;;;;;;;;;;5052273;28;21050;-78
2022/09/10 13:12:54;;;;;;;2.90;1.20;;;;;;;;;;5055904;28;20234;-78
2022/09/10 13:15:23;;;;;;;2.53;1.10;;;;;;;;;;5051071;28;20206;-78
2022/09/10 13:18:09;;;;;;;2.13;0.80;;;;;;;;;;5050203;28;20200;-79
2022/09/10 13:20:39;;;;;;;3.35;0.80;;;;;;;;;;5061203;28;20291;-78
2022/09/10 13:23:20;;;;;;;1.83;0.98;;;;;;;;;;5052340;28;20219;-78
2022/09/10 13:25:47;;;;;;;3.10;0.90;;;;;;;;;;5062220;28;20196;-78
2022/09/10 13:28:33;;;;;;;3.47;0.90;;;;;;;;;;5066146;28;20231;-78
2022/09/10 13:31:01;;;;;;;3.85;1.13;;;;;;;;;;5053287;28;20620;-78
2022/09/10 13:33:29;;;;;;;1.75;0.75;;;;;;;;;;5070812;28;20230;-78
2022/09/10 13:36:10;;;;;;;3.33;1.30;;;;;;;;;;5071635;28;20701;-78
2022/09/10 13:39:07;;;;;;;4.88;1.20;;;;;;;;;;5070425;28;20652;-79
2022/09/10 13:41:52;;;;;;;1.63;1.00;;;;;;;;;;5071019;28;20217;-78
2022/09/10 13:44:29;;;;;;;2.60;1.00;;;;;;;;;;5071502;28;20267;-78
2022/09/10 13:46:58;;;;;;;2.28;1.08;;;;;;;;;;5074999;28;20248;-78
2022/09/10 13:49:30;;;;;;;3.03;0.88;;;;;;;;;;5074847;28;20675;-78
2022/09/10 13:52:00;;;;;;;2.90;0.80;;;;;;;;;;5070611;28;20243;-78
2022/09/10 13:54:31;;;;;;;2.13;0.85;;;;;;;;;;5056237;28;20238;-78
2022/09/10 13:57:01;;;;;;;2.40;0.80;;;;;;;;;;5063917;28;20199;-78
2022/09/10 13:59:30;;;;;;;2.83;1.00;;;;;;;;;;5073224;28;20545;-78
2022/09/10 14:01:58;;;;;;;1.75;1.00;;;;;;;;;;5075275;28;20235;-78
2022/09/10 14:04:26;;;;;;;1.92;0.85;;;;;;;;;;5074222;28;20230;-79
2022/09/10 14:06:56;;;;;;;2.17;0.80;;;;;;;;;;5072552;28;20231;-79
2022/09/10 14:09:24;;;;;;;1.35;0.80;;;;;;;;;;5055157;28;20196;-78
2022/09/10 14:11:51;;;;;;;1.75;0.82;;;;;;;;;;5065459;28;20724;-78
2022/09/10 14:14:20;;;;;;;2.97;1.08;;;;;;;;;;5074900;28;20564;-78
2022/09/10 14:16:50;;;;;;;2.08;1.00;;;;;;;;;;5073671;28;20239;-78
2022/09/10 14:19:20;;;;;;;1.60;0.80;;;;;;;;;;5059868;28;20202;-83
2022/09/10 14:21:48;;;;;;;5.30;0.90;;;;;;;;;;5079034;28;20275;-83
2022/09/10 14:24:29;;;;;;;1.67;0.80;;;;;;;;;;5073080;28;20250;-83
2022/09/10 14:27:07;;;;;;;4.85;1.05;;;;;;;;;;5066872;28;20690;-83
2022/09/10 14:29:35;;;;;;;1.50;0.82;;;;;;;;;;5069961;28;20702;-82
2022/09/10 14:32:16;;;;;;;3.35;0.90;;;;;;;;;;5071577;28;20292;-82
2022/09/10 14:34:43;;;;;;;3.22;1.00;;;;;;;;;;5068117;28;20195;-82
2022/09/10 14:37:25;;;;;;;3.13;1.10;;;;;;;;;;5073636;28;20246;-82
2022/09/10 14:39:55;;;;;;;1.42;1.00;;;;;;;;;;5069175;28;20285;-82
2022/09/10 14:42:26;;;;;;;2.35;0.80;;;;;;;;;;5058683;28;20578;-81
2022/09/10 14:44:53;;;;;;;2.10;0.95;;;;;;;;;;5067427;28;20215;-82
2022/09/10 14:47:28;;;;;;;2.80;0.80;;;;;;;;;;5056042;28;20634;-81
2022/09/10 14:50:15;;;;;;;1.73;0.80;;;;;;;;;;5067582;28;20225;-81
2022/09/10 14:52:42;;;;;;;1.98;0.90;;;;;;;;;;5057017;28;20213;-82
2022/09/10 14:55:12;;;;;;;3.40;0.95;;;;;;;;;;5073102;28;20226;-81
2022/09/10 14:57:40;;;;;;;2.60;0.85;;;;;;;;;;5058551;28;20648;-81